Time;durP1;ratioP1;P1;durP2;ratioP2;P2;SDS_P1;SDS_P2;PMS_P1;PMS_P2;Temp;Humidity;BMP_temperature;BMP_pressure;BME280_temperature;BME280_humidity;BME280_pressure;Samples;Min_cycle;Max_cycle;Signal;HPM_P1;HPM_P2
2024/01/05 00:01:22;;;;;;;9.63;2.80;;;8.00;99.90;;;;;;5031867;28;20178;-76
2024/01/05 00:03:48;;;;;;;7.53;2.50;;;8.00;99.90;;;;;;5034552;28;20190;-76
2024/01/05 00:06:13;;;;;;;5.67;2.87;;;8.10;99.90;;;;;;5032386;28;20244;-74
2024/01/05 00:08:39;;;;;;;5.10;2.47;;;8.00;99.90;;;;;;5033347;28;20659;-74
2024/01/05 00:11:05;;;;;;;7.53;2.57;;;8.10;99.90;;;;;;5016166;28;20190;-76
2024/01/05 00:13:30;;;;;;;3.97;2.40;;;8.00;99.90;;;;;;5032421;28;20304;-76
2024/01/05 00:15:56;;;;;;;5.27;2.40;;;8.10;99.90;;;;;;5032944;28;20239;-74
2024/01/05 00:18:22;;;;;;;8.43;2.10;;;8.10;99.90;;;;;;5014700;28;20987;-76
2024/01/05 00:20:47;;;;;;;5.77;3.97;;;8.10;99.90;;;;;;5033332;28;20532;-74
2024/01/05 00:23:13;;;;;;;6.20;2.93;;;8.10;99.90;;;;;;5033340;28;20186;-73
2024/01/05 00:25:39;;;;;;;6.23;2.83;;;8.10;99.90;;;;;;5032977;28;20269;-74
2024/01/05 00:28:05;;;;;;;4.27;2.20;;;8.00;99.90;;;;;;5033593;28;20736;-75
2024/01/05 00:30:33;;;;;;;2.90;2.10;;;8.00;99.90;;;;;;5032329;28;20190;-75
2024/01/05 00:32:58;;;;;;;4.53;2.30;;;8.10;99.90;;;;;;5032931;28;20271;-76
2024/01/05 00:35:24;;;;;;;9.60;2.67;;;8.00;99.90;;;;;;5032611;28;20433;-75
2024/01/05 00:37:49;;;;;;;6.43;2.70;;;8.00;99.90;;;;;;5033552;28;20182;-74
2024/01/05 00:40:15;;;;;;;8.27;2.50;;;8.00;99.90;;;;;;5015023;28;20213;-74
2024/01/05 00:42:41;;;;;;;11.60;3.20;;;8.00;99.90;;;;;;5032491;28;20582;-76
2024/01/05 00:45:07;;;;;;;7.40;2.67;;;8.00;99.90;;;;;;5032467;28;20678;-75
2024/01/05 00:47:33;;;;;;;8.60;2.67;;;8.00;99.90;;;;;;5032493;28;20916;-75
2024/01/05 00:49:58;;;;;;;9.23;2.20;;;8.10;99.90;;;;;;5033199;28;20439;-73
2024/01/05 00:52:24;;;;;;;9.27;2.50;;;8.10;99.90;;;;;;5032539;28;20935;-75
2024/01/05 00:54:49;;;;;;;11.00;2.33;;;8.00;99.90;;;;;;5036403;28;20269;-76
2024/01/05 00:57:15;;;;;;;6.43;2.37;;;8.00;99.90;;;;;;5038020;28;21003;-73
2024/01/05 00:59:41;;;;;;;7.20;3.13;;;8.00;99.90;;;;;;5038834;28;20190;-73
2024/01/05 01:02:06;;;;;;;7.83;2.30;;;8.10;99.90;;;;;;5038721;28;20181;-75
2024/01/05 01:04:32;;;;;;;8.53;2.53;;;8.10;99.90;;;;;;5039024;28;20178;-74
2024/01/05 01:06:58;;;;;;;10.57;3.33;;;8.10;99.90;;;;;;5039092;28;20238;-73
2024/01/05 01:09:23;;;;;;;8.77;2.50;;;8.10;99.90;;;;;;5039092;28;20647;-73
2024/01/05 01:11:50;;;;;;;6.00;2.60;;;8.10;99.90;;;;;;5039362;28;20640;-74
2024/01/05 01:14:16;;;;;;;10.00;2.20;;;8.20;99.90;;;;;;5020467;28;20225;-77
2024/01/05 01:16:42;;;;;;;9.23;3.07;;;8.20;99.90;;;;;;5038500;28;20443;-73
2024/01/05 01:19:07;;;;;;;6.13;2.67;;;8.20;99.90;;;;;;5038249;28;20432;-74
2024/01/05 01:21:33;;;;;;;6.60;2.30;;;8.20;99.90;;;;;;5038978;28;20220;-73
2024/01/05 01:23:58;;;;;;;6.00;3.00;;;8.20;99.90;;;;;;5039318;28;20186;-76
2024/01/05 01:26:24;;;;;;;8.97;3.10;;;8.20;99.90;;;;;;5020384;28;20250;-75
2024/01/05 01:28:50;;;;;;;7.00;2.27;;;8.20;99.90;;;;;;5021136;28;20613;-73
2024/01/05 01:31:16;;;;;;;7.47;2.10;;;8.20;99.90;;;;;;5038184;28;20201;-75
2024/01/05 01:33:41;;;;;;;4.70;2.50;;;8.20;99.90;;;;;;5038281;28;20227;-75
2024/01/05 01:36:07;;;;;;;8.80;3.13;;;8.20;99.90;;;;;;5038762;28;20217;-75
2024/01/05 01:38:33;;;;;;;7.00;2.50;;;8.30;99.90;;;;;;5021485;28;20181;-74
2024/01/05 01:40:59;;;;;;;6.77;2.40;;;8.20;99.90;;;;;;5039280;28;20177;-76
2024/01/05 01:43:26;;;;;;;7.03;2.47;;;8.20;99.90;;;;;;5038195;28;20177;-76
2024/01/05 01:46:00;;;;;;;7.90;2.43;;;8.20;99.90;;;;;;5038494;28;20420;-75
2024/01/05 01:48:27;;;;;;;9.13;2.67;;;8.30;99.90;;;;;;5038404;28;20423;-74
2024/01/05 01:50:57;;;;;;;10.50;2.50;;;8.30;99.90;;;;;;5038589;28;20440;-74
2024/01/05 01:53:24;;;;;;;10.53;2.37;;;8.30;99.90;;;;;;5019993;28;20479;-73
2024/01/05 01:55:50;;;;;;;7.77;2.20;;;8.30;99.90;;;;;;5038910;28;20462;-75
2024/01/05 01:58:18;;;;;;;8.77;2.30;;;8.30;99.90;;;;;;5037990;28;20436;-72
2024/01/05 02:00:45;;;;;;;7.63;2.30;;;8.30;99.90;;;;;;5038586;28;20416;-74
2024/01/05 02:03:11;;;;;;;5.00;2.53;;;8.30;99.90;;;;;;5021575;28;20503;-76
2024/01/05 02:05:37;;;;;;;5.43;3.47;;;8.20;99.90;;;;;;5037133;28;20997;-76
2024/01/05 02:08:03;;;;;;;6.90;2.10;;;8.20;99.90;;;;;;5035094;28;20430;-75
2024/01/05 02:10:29;;;;;;;6.90;2.63;;;8.30;99.90;;;;;;5035445;28;20186;-75
2024/01/05 02:12:56;;;;;;;5.43;1.83;;;8.30;99.90;;;;;;5035746;28;20500;-74
2024/01/05 02:15:22;;;;;;;8.13;2.50;;;8.30;99.90;;;;;;5034042;28;20443;-75
2024/01/05 02:17:48;;;;;;;5.23;1.90;;;8.20;99.90;;;;;;5035770;28;20478;-73
2024/01/05 02:20:14;;;;;;;9.07;2.20;;;8.20;99.90;;;;;;5035099;28;20919;-74
2024/01/05 02:22:45;;;;;;;9.67;2.30;;;8.30;99.90;;;;;;5035323;28;20182;-74
2024/01/05 02:25:11;;;;;;;6.73;1.87;;;8.20;99.90;;;;;;5034622;28;20639;-72
2024/01/05 02:27:37;;;;;;;5.07;2.00;;;8.20;99.90;;;;;;5035119;28;20421;-74
2024/01/05 02:30:03;;;;;;;6.73;1.80;;;8.20;99.90;;;;;;5034127;28;20202;-73
2024/01/05 02:32:30;;;;;;;6.47;1.93;;;8.30;99.90;;;;;;5034580;28;20480;-73
2024/01/05 02:34:56;;;;;;;6.03;1.90;;;8.30;99.90;;;;;;5016943;28;20566;-73
2024/01/05 02:37:22;;;;;;;5.80;2.27;;;8.30;99.90;;;;;;5033879;28;20443;-75
2024/01/05 02:39:48;;;;;;;10.03;2.20;;;8.30;99.90;;;;;;5034639;28;20448;-74
2024/01/05 02:42:14;;;;;;;5.70;2.30;;;8.30;99.90;;;;;;5016359;28;20426;-74
2024/01/05 02:44:39;;;;;;;5.70;2.00;;;8.20;99.90;;;;;;5034304;28;20265;-73
2024/01/05 02:47:05;;;;;;;7.43;2.50;;;8.30;99.90;;;;;;5033962;28;20190;-73
2024/01/05 02:49:31;;;;;;;6.57;2.23;;;8.30;99.90;;;;;;5034845;28;20214;-76
2024/01/05 02:51:57;;;;;;;7.67;2.73;;;8.30;99.90;;;;;;5034724;28;20440;-75
2024/01/05 02:54:22;;;;;;;5.30;2.00;;;8.30;99.90;;;;;;5032322;28;20217;-76
2024/01/05 02:56:49;;;;;;;6.20;1.80;;;8.30;99.90;;;;;;5034884;28;20532;-74
2024/01/05 02:59:15;;;;;;;8.37;2.67;;;8.20;99.90;;;;;;5033606;28;20251;-76
2024/01/05 03:01:41;;;;;;;5.63;2.20;;;8.20;99.90;;;;;;5035190;28;20421;-75
2024/01/05 03:04:07;;;;;;;4.80;2.33;;;8.20;99.90;;;;;;5033672;28;20959;-76
2024/01/05 03:06:33;;;;;;;4.53;1.60;;;8.20;99.90;;;;;;5034446;28;20213;-73
2024/01/05 03:08:59;;;;;;;5.97;1.90;;;8.20;99.90;;;;;;5033930;28;20467;-74
2024/01/05 03:11:25;;;;;;;7.83;1.87;;;8.20;99.90;;;;;;5034212;28;20182;-73
2024/01/05 03:13:50;;;;;;;5.03;2.17;;;8.20;99.90;;;;;;5034183;28;20503;-75
2024/01/05 03:16:16;;;;;;;6.30;2.00;;;8.20;99.90;;;;;;5032649;28;20206;-75
2024/01/05 03:18:42;;;;;;;6.13;2.23;;;8.20;99.90;;;;;;5032773;28;21089;-73
2024/01/05 03:21:08;;;;;;;6.87;2.37;;;8.20;99.90;;;;;;5032491;28;20213;-75
2024/01/05 03:23:34;;;;;;;5.07;2.07;;;8.20;99.90;;;;;;5033968;28;20421;-74
2024/01/05 03:26:00;;;;;;;8.67;2.90;;;8.20;99.90;;;;;;5015145;28;20486;-75
2024/01/05 03:28:26;;;;;;;5.27;2.47;;;8.20;99.90;;;;;;5033542;28;20618;-77
2024/01/05 03:30:52;;;;;;;7.50;3.17;;;8.20;99.90;;;;;;5034166;28;20186;-75
2024/01/05 03:33:20;;;;;;;3.03;1.90;;;8.20;99.90;;;;;;5014268;28;20802;-73
2024/01/05 03:35:45;;;;;;;3.63;1.80;;;8.10;99.90;;;;;;5015493;28;20408;-76
2024/01/05 03:38:11;;;;;;;5.87;2.57;;;8.10;99.90;;;;;;5032713;28;20432;-75
2024/01/05 03:40:37;;;;;;;4.77;2.10;;;8.10;99.90;;;;;;5033099;28;20184;-74
2024/01/05 03:43:03;;;;;;;6.50;2.83;;;8.10;99.90;;;;;;5032016;28;20266;-76
2024/01/05 03:45:29;;;;;;;7.57;2.70;;;8.20;99.90;;;;;;5033720;28;20178;-76
2024/01/05 03:47:55;;;;;;;6.30;2.53;;;8.20;99.90;;;;;;5033278;28;20443;-75
2024/01/05 03:50:20;;;;;;;6.50;2.53;;;8.10;99.90;;;;;;5032840;28;20182;-73
2024/01/05 03:52:46;;;;;;;5.80;2.30;;;8.10;99.90;;;;;;5032990;28;20703;-76
2024/01/05 03:55:12;;;;;;;5.17;2.30;;;8.10;99.90;;;;;;5032074;28;20205;-74
2024/01/05 03:57:37;;;;;;;6.90;2.20;;;8.10;99.90;;;;;;5032852;28;20202;-73
2024/01/05 04:00:04;;;;;;;6.87;3.43;;;8.10;99.90;;;;;;5032087;28;20683;-76
2024/01/05 04:02:29;;;;;;;6.53;2.13;;;8.10;99.90;;;;;;5032642;28;20186;-74
2024/01/05 04:04:55;;;;;;;5.00;2.17;;;8.10;99.90;;;;;;5032580;28;20432;-73
2024/01/05 04:07:20;;;;;;;4.27;2.07;;;8.10;99.90;;;;;;5032689;28;20192;-74
2024/01/05 04:09:46;;;;;;;5.70;2.00;;;8.10;99.90;;;;;;5032978;28;20675;-74
2024/01/05 04:12:12;;;;;;;6.00;2.60;;;8.10;99.90;;;;;;5031774;28;20556;-75
2024/01/05 04:14:37;;;;;;;4.30;2.40;;;8.10;99.90;;;;;;5032476;28;20193;-76
2024/01/05 04:17:03;;;;;;;4.27;2.17;;;8.10;99.90;;;;;;5014005;28;20221;-75
2024/01/05 04:19:29;;;;;;;7.27;2.40;;;8.10;99.90;;;;;;5033433;28;20190;-74
2024/01/05 04:21:55;;;;;;;2.97;2.57;;;8.10;99.90;;;;;;5033012;28;20197;-74
2024/01/05 04:24:21;;;;;;;3.80;1.90;;;8.10;99.90;;;;;;5017384;28;20425;-75
2024/01/05 04:26:48;;;;;;;3.27;1.80;;;8.20;99.90;;;;;;5014879;28;20425;-73
2024/01/05 04:29:14;;;;;;;4.37;2.27;;;8.20;99.90;;;;;;5031399;28;20728;-74
2024/01/05 04:31:39;;;;;;;6.97;2.33;;;8.20;99.90;;;;;;5032186;28;20429;-74
2024/01/05 04:34:05;;;;;;;4.23;2.43;;;8.10;99.90;;;;;;5031486;28;20477;-74
2024/01/05 04:36:31;;;;;;;5.27;3.00;;;8.20;99.90;;;;;;5014180;28;20182;-73
2024/01/05 04:38:56;;;;;;;7.43;2.17;;;8.10;99.90;;;;;;5031549;28;20198;-74
2024/01/05 04:41:23;;;;;;;7.87;2.53;;;8.10;99.90;;;;;;5031839;28;20280;-75
2024/01/05 04:43:50;;;;;;;5.87;2.13;;;8.10;99.90;;;;;;5032643;28;20186;-73
2024/01/05 04:46:18;;;;;;;8.37;2.33;;;8.20;99.90;;;;;;5013844;28;20492;-74
2024/01/05 04:48:43;;;;;;;6.10;2.00;;;8.20;99.90;;;;;;5031503;28;20420;-74
2024/01/05 04:51:09;;;;;;;6.47;2.00;;;8.20;99.90;;;;;;5030958;28;20428;-75
2024/01/05 04:53:35;;;;;;;5.60;2.00;;;8.20;99.90;;;;;;5014300;28;20209;-73
2024/01/05 04:56:01;;;;;;;3.97;2.07;;;8.20;99.90;;;;;;5030781;28;20440;-75
2024/01/05 04:58:27;;;;;;;5.63;2.20;;;8.30;99.90;;;;;;5031929;28;20204;-75
2024/01/05 05:00:53;;;;;;;6.80;2.40;;;8.20;99.90;;;;;;5031823;28;20727;-74
2024/01/05 05:03:19;;;;;;;5.87;2.43;;;8.30;99.90;;;;;;5030894;28;20197;-75
2024/01/05 05:05:45;;;;;;;5.03;2.23;;;8.30;99.90;;;;;;5013874;28;20421;-74
2024/01/05 05:08:13;;;;;;;4.73;2.37;;;8.20;99.90;;;;;;5031203;28;20624;-74
2024/01/05 05:10:39;;;;;;;3.60;2.23;;;8.20;99.90;;;;;;5030999;28;20461;-74
2024/01/05 05:13:05;;;;;;;5.40;2.50;;;8.30;99.90;;;;;;5031110;28;20514;-73
2024/01/05 05:15:31;;;;;;;5.17;1.83;;;8.20;99.90;;;;;;5032101;28;20647;-74
2024/01/05 05:17:56;;;;;;;6.23;2.33;;;8.20;99.90;;;;;;5031078;28;20210;-73
2024/01/05 05:20:22;;;;;;;4.07;2.27;;;8.30;99.90;;;;;;5031454;28;20189;-75
2024/01/05 05:22:48;;;;;;;5.37;1.80;;;8.30;99.90;;;;;;5031010;28;20179;-75
2024/01/05 05:25:14;;;;;;;5.77;2.53;;;8.30;99.90;;;;;;5030056;28;20947;-75
2024/01/05 05:27:39;;;;;;;6.20;2.63;;;8.30;99.90;;;;;;5032215;28;20178;-75
2024/01/05 05:30:06;;;;;;;5.53;2.07;;;8.30;99.90;;;;;;5013426;28;20190;-74
2024/01/05 05:32:32;;;;;;;4.87;3.00;;;8.30;99.90;;;;;;5014193;28;20202;-73
2024/01/05 05:34:58;;;;;;;4.53;2.33;;;8.30;99.90;;;;;;5031567;28;20851;-75
2024/01/05 05:37:24;;;;;;;4.17;2.23;;;8.30;99.90;;;;;;5000227;28;20426;-74
2024/01/05 05:39:49;;;;;;;4.30;2.73;;;8.30;99.90;;;;;;5012481;28;20837;-75
2024/01/05 05:42:15;;;;;;;5.77;2.20;;;8.30;99.90;;;;;;5033569;28;20748;-75
2024/01/05 05:44:41;;;;;;;5.70;2.20;;;8.30;99.90;;;;;;5034513;28;20232;-73
2024/01/05 05:47:06;;;;;;;7.47;2.20;;;8.30;99.90;;;;;;5034346;28;20305;-75
2024/01/05 05:49:32;;;;;;;7.17;2.57;;;8.40;99.90;;;;;;5036902;28;20177;-75
2024/01/05 05:51:58;;;;;;;5.90;2.77;;;8.40;99.90;;;;;;5018483;28;20178;-73
2024/01/05 05:54:23;;;;;;;7.23;2.47;;;8.40;99.90;;;;;;5038000;28;20223;-74
2024/01/05 05:56:49;;;;;;;5.27;2.13;;;8.40;99.90;;;;;;5019314;28;20220;-73
2024/01/05 05:59:15;;;;;;;4.93;2.10;;;8.40;99.90;;;;;;5037573;28;20247;-75
2024/01/05 06:01:40;;;;;;;4.47;1.70;;;8.40;99.90;;;;;;5002395;28;20194;-76
2024/01/05 06:04:07;;;;;;;5.03;2.30;;;8.40;99.90;;;;;;5036443;28;20735;-74
2024/01/05 06:06:33;;;;;;;4.23;2.03;;;8.40;99.90;;;;;;5037468;28;20181;-75
2024/01/05 06:08:59;;;;;;;7.33;2.93;;;8.40;99.90;;;;;;5035882;28;20447;-75
2024/01/05 06:11:28;;;;;;;6.93;2.07;;;8.40;99.90;;;;;;5037796;28;20421;-73
2024/01/05 06:13:56;;;;;;;4.10;2.00;;;8.40;99.90;;;;;;5037210;28;20476;-74
2024/01/05 06:16:21;;;;;;;5.33;2.10;;;8.40;99.90;;;;;;5036503;28;20459;-73
2024/01/05 06:18:48;;;;;;;4.40;2.30;;;8.50;99.90;;;;;;5037284;28;20424;-73
2024/01/05 06:21:14;;;;;;;5.17;1.90;;;8.50;99.90;;;;;;5037188;28;20668;-75
2024/01/05 06:23:40;;;;;;;4.37;2.30;;;8.40;99.90;;;;;;5036638;28;20455;-75
2024/01/05 06:26:06;;;;;;;3.50;1.70;;;8.40;99.90;;;;;;5036309;28;20448;-74
2024/01/05 06:28:31;;;;;;;3.97;2.00;;;8.40;99.90;;;;;;5037012;28;20186;-74
2024/01/05 06:30:57;;;;;;;4.03;1.87;;;8.50;99.90;;;;;;5036059;28;20227;-74
2024/01/05 06:33:23;;;;;;;2.50;1.60;;;8.40;99.90;;;;;;5036117;28;20312;-75
2024/01/05 06:35:49;;;;;;;3.20;1.90;;;8.40;99.90;;;;;;5031496;28;20647;-75
2024/01/05 06:38:14;;;;;;;4.03;2.00;;;8.40;99.90;;;;;;5036157;28;20730;-72
2024/01/05 06:40:40;;;;;;;7.03;2.40;;;8.40;99.90;;;;;;5035631;28;20439;-74
2024/01/05 06:43:06;;;;;;;3.87;1.90;;;8.40;99.90;;;;;;5017079;28;20193;-76
2024/01/05 06:45:31;;;;;;;4.57;2.03;;;8.40;99.90;;;;;;5033755;28;20618;-74
2024/01/05 06:47:57;;;;;;;4.73;1.60;;;8.40;99.90;;;;;;5033091;28;20335;-76
2024/01/05 06:50:24;;;;;;;5.27;1.93;;;8.40;99.90;;;;;;5035850;28;21670;-76
2024/01/05 06:52:50;;;;;;;5.67;2.37;;;8.40;99.90;;;;;;5034831;28;20580;-74
2024/01/05 06:55:16;;;;;;;5.20;2.17;;;8.40;99.90;;;;;;5036373;28;20425;-76
2024/01/05 06:57:41;;;;;;;4.83;2.00;;;8.40;99.90;;;;;;5018049;28;20427;-74
2024/01/05 07:00:09;;;;;;;4.70;1.87;;;8.40;99.90;;;;;;5036346;28;20200;-75
2024/01/05 07:02:35;;;;;;;2.83;1.77;;;8.30;99.90;;;;;;5018216;28;20194;-76
2024/01/05 07:05:03;;;;;;;5.10;1.90;;;8.30;99.90;;;;;;5034918;28;20425;-76
2024/01/05 07:07:28;;;;;;;1.83;1.40;;;8.30;99.90;;;;;;5036180;28;20451;-73
2024/01/05 07:09:54;;;;;;;2.83;1.87;;;8.30;99.90;;;;;;5035525;28;20428;-76
2024/01/05 07:12:20;;;;;;;4.33;2.10;;;8.30;99.90;;;;;;5036307;28;21009;-74
2024/01/05 07:14:49;;;;;;;3.73;1.60;;;8.30;99.90;;;;;;5035051;28;20196;-73
2024/01/05 07:17:15;;;;;;;7.77;1.90;;;8.40;99.90;;;;;;5036408;28;20202;-74
2024/01/05 07:19:41;;;;;;;5.87;1.70;;;8.40;99.90;;;;;;5035750;28;20535;-74
2024/01/05 07:22:07;;;;;;;4.13;1.47;;;8.40;99.90;;;;;;5035857;28;20958;-75
2024/01/05 07:24:35;;;;;;;1.90;1.43;;;8.40;99.90;;;;;;5032162;28;20436;-73
2024/01/05 07:27:01;;;;;;;5.93;1.90;;;8.40;99.90;;;;;;5033910;28;20826;-75
2024/01/05 07:29:26;;;;;;;4.27;1.53;;;8.50;99.90;;;;;;5035659;28;20429;-75
2024/01/05 07:31:52;;;;;;;4.80;1.50;;;8.40;99.90;;;;;;5016702;28;20580;-75
2024/01/05 07:34:18;;;;;;;3.97;1.90;;;8.40;99.90;;;;;;5034775;28;20221;-74
2024/01/05 07:36:44;;;;;;;2.43;1.40;;;8.50;99.90;;;;;;5034939;28;20306;-74
2024/01/05 07:39:11;;;;;;;4.00;1.67;;;8.50;99.90;;;;;;5035757;28;20932;-73
2024/01/05 07:41:38;;;;;;;3.87;2.00;;;8.50;99.90;;;;;;5017498;28;20205;-73
2024/01/05 07:44:04;;;;;;;1.73;1.20;;;8.50;99.90;;;;;;5035439;28;20441;-73
2024/01/05 07:46:30;;;;;;;4.17;1.57;;;8.50;99.90;;;;;;5031216;28;20455;-75
2024/01/05 07:48:56;;;;;;;3.30;1.50;;;8.50;99.90;;;;;;5031179;28;20429;-75
2024/01/05 07:51:25;;;;;;;2.87;1.40;;;8.50;99.90;;;;;;5026761;28;20439;-72
2024/01/05 07:53:52;;;;;;;5.73;1.80;;;8.50;99.90;;;;;;4998748;28;20999;-76
2024/01/05 07:56:18;;;;;;;3.20;1.57;;;8.50;99.90;;;;;;5028115;28;20437;-74
2024/01/05 07:58:44;;;;;;;3.43;1.50;;;8.50;99.90;;;;;;5000630;28;20762;-73
2024/01/05 08:01:20;;;;;;;2.90;1.40;;;8.60;99.90;;;;;;5032542;28;20189;-75
2024/01/05 08:03:46;;;;;;;3.03;1.70;;;8.50;99.90;;;;;;5032031;28;20421;-75
2024/01/05 08:06:17;;;;;;;4.50;1.70;;;8.60;99.90;;;;;;4999593;28;20463;-76
2024/01/05 08:08:45;;;;;;;3.40;1.50;;;8.60;99.90;;;;;;5031352;28;20551;-73
2024/01/05 08:11:11;;;;;;;2.20;1.37;;;8.60;99.90;;;;;;5012347;28;20451;-76
2024/01/05 08:13:37;;;;;;;2.67;1.20;;;8.60;99.90;;;;;;5029434;28;20477;-73
2024/01/05 08:16:03;;;;;;;2.27;1.23;;;8.60;99.90;;;;;;5031976;28;20479;-76
2024/01/05 08:18:29;;;;;;;2.50;1.30;;;8.60;99.90;;;;;;4999249;28;20186;-73
2024/01/05 08:20:54;;;;;;;3.03;1.50;;;8.60;99.90;;;;;;5014882;28;20761;-73
2024/01/05 08:23:20;;;;;;;3.17;1.87;;;8.60;99.90;;;;;;5014480;28;20193;-75
2024/01/05 08:25:47;;;;;;;2.03;1.33;;;8.70;99.90;;;;;;5033060;28;20206;-75
2024/01/05 08:28:12;;;;;;;2.90;1.40;;;8.70;99.90;;;;;;5014667;28;20178;-75
2024/01/05 08:30:39;;;;;;;6.10;1.63;;;8.70;99.90;;;;;;5032742;28;20432;-75
2024/01/05 08:33:06;;;;;;;4.57;1.20;;;8.70;99.90;;;;;;5028489;28;20222;-75
2024/01/05 08:35:33;;;;;;;2.57;1.53;;;8.70;99.90;;;;;;5015117;28;21007;-75
2024/01/05 08:37:59;;;;;;;3.90;1.50;;;8.70;99.90;;;;;;4997626;28;20450;-75
2024/01/05 08:40:27;;;;;;;2.83;1.20;;;8.70;99.90;;;;;;5029669;28;20437;-73
2024/01/05 08:42:54;;;;;;;3.97;1.53;;;8.70;99.90;;;;;;4998189;28;20640;-73
2024/01/05 08:45:20;;;;;;;1.20;0.80;;;8.70;99.90;;;;;;5030452;28;20444;-72
2024/01/05 08:47:46;;;;;;;2.60;1.40;;;8.70;99.90;;;;;;5032334;28;20535;-73
2024/01/05 08:50:12;;;;;;;3.00;1.43;;;8.70;99.90;;;;;;5032252;28;21074;-73
2024/01/05 08:52:38;;;;;;;2.03;1.20;;;8.80;99.90;;;;;;5031723;28;20182;-76
2024/01/05 08:55:05;;;;;;;3.37;1.30;;;8.80;99.90;;;;;;5031017;28;20436;-74
2024/01/05 08:57:31;;;;;;;2.67;1.30;;;8.80;99.90;;;;;;4997710;28;20182;-75
2024/01/05 08:59:58;;;;;;;2.53;1.20;;;8.80;99.90;;;;;;5013843;28;20773;-74
2024/01/05 09:02:26;;;;;;;5.70;1.40;;;8.80;99.90;;;;;;4998315;28;20431;-73
2024/01/05 09:04:52;;;;;;;3.23;1.40;;;8.80;99.90;;;;;;4993993;28;20460;-72
2024/01/05 09:07:17;;;;;;;3.50;1.17;;;8.80;99.90;;;;;;5014790;28;20425;-72
2024/01/05 09:09:43;;;;;;;2.20;1.20;;;8.80;99.90;;;;;;5031424;28;20192;-74
2024/01/05 09:12:09;;;;;;;3.03;1.30;;;8.80;99.90;;;;;;5030735;28;20272;-74
2024/01/05 09:14:37;;;;;;;3.47;1.03;;;8.80;99.90;;;;;;5013494;28;20263;-74
2024/01/05 09:17:04;;;;;;;2.50;1.20;;;8.80;99.90;;;;;;4999538;28;20455;-74
2024/01/05 09:19:29;;;;;;;2.30;1.00;;;8.80;99.90;;;;;;5036495;28;20769;-72
2024/01/05 09:21:55;;;;;;;2.80;1.10;;;8.80;99.90;;;;;;5018267;28;20430;-75
2024/01/05 09:24:21;;;;;;;2.43;1.30;;;8.90;99.90;;;;;;5036107;28;20522;-75
2024/01/05 09:26:50;;;;;;;4.50;1.87;;;8.90;99.90;;;;;;5002119;28;20187;-75
2024/01/05 09:29:16;;;;;;;1.70;1.00;;;8.90;99.90;;;;;;5036782;28;20447;-73
2024/01/05 09:31:48;;;;;;;1.10;0.83;;;8.80;99.90;;;;;;5035784;28;20420;-74
2024/01/05 09:34:14;;;;;;;2.23;0.90;;;8.90;99.90;;;;;;5034578;28;20232;-76
2024/01/05 09:36:43;;;;;;;0.90;0.73;;;8.90;99.90;;;;;;5035843;28;20437;-76
2024/01/05 09:39:12;;;;;;;1.00;0.60;;;8.90;99.90;;;;;;5018368;28;20425;-73
2024/01/05 09:41:41;;;;;;;0.87;0.50;;;8.80;99.90;;;;;;5002660;28;20424;-73
2024/01/05 09:44:10;;;;;;;1.43;0.80;;;8.80;99.90;;;;;;5018096;28;20428;-75
2024/01/05 09:46:39;;;;;;;1.00;0.60;;;8.80;99.90;;;;;;4997376;28;20452;-75
2024/01/05 09:49:07;;;;;;;4.67;0.60;;;8.80;99.90;;;;;;5014617;28;20851;-74
2024/01/05 09:51:34;;;;;;;0.63;0.33;;;8.80;99.90;;;;;;4999447;28;20536;-76
2024/01/05 09:54:00;;;;;;;0.70;0.40;;;8.80;99.90;;;;;;5033595;28;20468;-73
2024/01/05 09:56:27;;;;;;;1.40;0.50;;;8.90;99.90;;;;;;5015340;28;20447;-78
2024/01/05 09:58:54;;;;;;;1.13;0.50;;;9.00;99.90;;;;;;5016295;28;20186;-76
2024/01/05 10:01:30;;;;;;;0.53;0.40;;;9.10;99.90;;;;;;5017481;28;20429;-76
2024/01/05 10:04:03;;;;;;;0.70;0.40;;;9.10;99.90;;;;;;5035602;28;20859;-75
2024/01/05 10:06:30;;;;;;;0.50;0.33;;;9.10;99.90;;;;;;5035369;28;20445;-78
2024/01/05 10:09:00;;;;;;;1.43;0.37;;;9.10;99.90;;;;;;5035576;28;20438;-77
2024/01/05 10:11:33;;;;;;;1.13;0.43;;;9.00;99.90;;;;;;5004057;28;20429;-76
2024/01/05 10:14:03;;;;;;;3.37;0.63;;;9.00;99.90;;;;;;4985427;28;20986;-78
2024/01/05 10:16:39;;;;;;;5.30;1.57;;;9.00;99.90;;;;;;5031570;28;20558;-78
2024/01/05 10:19:13;;;;;;;1.50;0.70;;;9.00;99.90;;;;;;5002297;28;20440;-77
2024/01/05 10:21:40;;;;;;;1.23;0.40;;;9.00;99.90;;;;;;5018496;28;20420;-76
2024/01/05 10:24:21;;;;;;;1.10;0.60;;;9.00;99.90;;;;;;5038053;28;20428;-77
2024/01/05 10:27:06;;;;;;;0.90;0.40;;;9.00;99.90;;;;;;4985567;28;20650;-76
2024/01/05 10:29:36;;;;;;;0.73;0.43;;;9.00;99.90;;;;;;5016804;28;20432;-74
2024/01/05 10:32:18;;;;;;;0.77;0.40;;;9.00;99.90;;;;;;5034221;28;20425;-74
2024/01/05 10:34:49;;;;;;;0.50;0.50;;;9.00;99.90;;;;;;5015981;28;20559;-77
2024/01/05 10:37:19;;;;;;;0.70;0.60;;;9.00;99.90;;;;;;5018689;28;20445;-74
2024/01/05 10:39:53;;;;;;;1.60;0.60;;;9.00;99.90;;;;;;5011544;28;20463;-75
2024/01/05 10:42:27;;;;;;;1.13;0.40;;;9.00;99.90;;;;;;5018252;28;20935;-78
2024/01/05 10:44:55;;;;;;;4.03;1.10;;;9.00;99.90;;;;;;5036482;28;20415;-75
2024/01/05 10:47:23;;;;;;;1.57;0.50;;;8.90;99.90;;;;;;5002108;28;20807;-77
2024/01/05 10:49:55;;;;;;;1.10;0.50;;;8.90;99.90;;;;;;5018534;28;20437;-80
2024/01/05 10:52:27;;;;;;;0.40;0.30;;;8.90;99.90;;;;;;5035599;28;21002;-73
2024/01/05 10:54:53;;;;;;;0.70;0.53;;;8.90;99.90;;;;;;5035533;28;20806;-77
2024/01/05 10:57:20;;;;;;;1.20;0.60;;;8.80;99.90;;;;;;5036189;28;20424;-76
2024/01/05 10:59:48;;;;;;;0.60;0.40;;;8.80;99.90;;;;;;5036375;28;20527;-76
2024/01/05 11:02:20;;;;;;;1.27;0.60;;;8.80;99.90;;;;;;5034217;28;20452;-73
2024/01/05 11:04:52;;;;;;;3.07;0.77;;;8.80;99.90;;;;;;5031367;28;20957;-75
2024/01/05 11:07:18;;;;;;;1.40;0.57;;;8.80;99.90;;;;;;5033157;28;20555;-74
2024/01/05 11:10:08;;;;;;;2.10;0.60;;;8.80;99.90;;;;;;5034059;28;20439;-75
2024/01/05 11:12:53;;;;;;;2.77;0.60;;;8.80;99.90;;;;;;4999787;28;20487;-74
2024/01/05 11:15:27;;;;;;;5.40;0.83;;;8.80;99.90;;;;;;5035497;28;20456;-77
2024/01/05 11:18:11;;;;;;;3.13;0.73;;;8.70;99.90;;;;;;5017310;28;20436;-78
2024/01/05 11:20:49;;;;;;;1.80;0.53;;;8.70;99.90;;;;;;5035247;28;20432;-73
2024/01/05 11:23:16;;;;;;;1.27;0.60;;;8.70;99.90;;;;;;5035239;28;20429;-74
2024/01/05 11:25:43;;;;;;;1.83;0.53;;;8.70;99.90;;;;;;5013801;28;20437;-76
2024/01/05 11:28:36;;;;;;;1.70;0.90;;;8.60;99.90;;;;;;5026369;28;20451;-75
2024/01/05 11:31:03;;;;;;;0.83;0.60;;;8.60;99.90;;;;;;4985494;28;20973;-74
2024/01/05 11:33:45;;;;;;;1.00;0.60;;;8.60;99.90;;;;;;5032592;28;20476;-72
2024/01/05 11:36:12;;;;;;;1.37;0.70;;;8.60;99.90;;;;;;5033977;28;20552;-72
2024/01/05 11:38:47;;;;;;;0.67;0.60;;;8.60;99.90;;;;;;5032841;28;20515;-72
2024/01/05 11:41:19;;;;;;;1.63;0.70;;;8.60;99.90;;;;;;4983468;28;20444;-72
2024/01/05 11:43:45;;;;;;;2.50;0.73;;;8.60;99.90;;;;;;4997977;28;20444;-73
2024/01/05 11:46:12;;;;;;;0.80;0.80;;;8.60;99.90;;;;;;5033729;28;20428;-75
2024/01/05 11:48:38;;;;;;;1.00;0.80;;;8.60;99.90;;;;;;5033250;28;20459;-73
2024/01/05 11:51:12;;;;;;;1.33;0.70;;;8.60;99.90;;;;;;5032638;28;20429;-73
2024/01/05 11:53:38;;;;;;;3.27;0.60;;;8.60;99.90;;;;;;5032517;28;20300;-74
2024/01/05 11:56:17;;;;;;;3.50;0.70;;;8.70;99.90;;;;;;4997412;28;20456;-72
2024/01/05 11:58:43;;;;;;;1.13;0.70;;;8.70;99.90;;;;;;5032584;28;20416;-73
2024/01/05 12:01:11;;;;;;;1.57;0.63;;;8.70;99.90;;;;;;5032504;28;20421;-74
2024/01/05 12:03:38;;;;;;;0.90;0.50;;;8.60;99.90;;;;;;5031599;28;20433;-72
2024/01/05 12:06:06;;;;;;;1.80;0.80;;;8.70;99.90;;;;;;5032419;28;20436;-73
2024/01/05 12:08:32;;;;;;;1.07;0.73;;;8.70;99.90;;;;;;5033174;28;20436;-74
2024/01/05 12:11:03;;;;;;;1.03;0.60;;;8.70;99.90;;;;;;5035703;28;20432;-74
2024/01/05 12:13:33;;;;;;;0.70;0.50;;;8.70;99.90;;;;;;5034608;28;20468;-73
2024/01/05 12:16:00;;;;;;;1.90;0.83;;;8.70;99.90;;;;;;5034090;28;20501;-74
2024/01/05 12:18:26;;;;;;;1.73;0.90;;;8.70;99.90;;;;;;5032946;28;20547;-72
2024/01/05 12:20:58;;;;;;;1.60;0.70;;;8.70;99.90;;;;;;5033610;28;20425;-74
2024/01/05 12:23:25;;;;;;;0.60;0.60;;;8.70;99.90;;;;;;5033329;28;20425;-74
2024/01/05 12:26:03;;;;;;;1.47;0.50;;;8.80;99.90;;;;;;5029080;28;20456;-73
2024/01/05 12:28:33;;;;;;;0.80;0.67;;;8.80;99.90;;;;;;5031820;28;20787;-74
2024/01/05 12:31:00;;;;;;;1.03;0.60;;;8.70;99.90;;;;;;5033053;28;20436;-73
2024/01/05 12:33:27;;;;;;;1.30;0.70;;;8.80;99.90;;;;;;5030957;28;20468;-73
2024/01/05 12:35:53;;;;;;;2.10;0.90;;;8.70;99.90;;;;;;5031802;28;20442;-76
2024/01/05 12:38:28;;;;;;;2.70;0.87;;;8.70;99.90;;;;;;5014665;28;20429;-73
2024/01/05 12:41:18;;;;;;;0.73;0.67;;;8.60;99.90;;;;;;5032460;28;20482;-74
2024/01/05 12:43:45;;;;;;;2.30;0.57;;;8.50;99.90;;;;;;5015182;28;20559;-75
2024/01/05 12:46:12;;;;;;;1.27;0.67;;;8.50;99.90;;;;;;5032433;28;20796;-74
2024/01/05 12:48:38;;;;;;;0.80;0.80;;;8.50;99.90;;;;;;5015168;28;20428;-73
2024/01/05 12:51:09;;;;;;;1.27;0.67;;;8.50;99.90;;;;;;5014857;28;21206;-74
2024/01/05 12:53:35;;;;;;;3.03;0.63;;;8.50;99.90;;;;;;5032992;28;20468;-74
2024/01/05 12:56:11;;;;;;;1.00;0.60;;;8.50;99.90;;;;;;5032680;28;20435;-74
2024/01/05 12:58:41;;;;;;;0.73;0.50;;;8.40;99.90;;;;;;5032002;28;20446;-75